Time;durP1;ratioP1;P1;durP2;ratioP2;P2;SDS_P1;SDS_P2;PMS_P1;PMS_P2;Temp;Humidity;BMP_temperature;BMP_pressure;BME280_temperature;BME280_humidity;BME280_pressure;Samples;Min_cycle;Max_cycle;Signal;HPM_P1;HPM_P2
2021/03/14 00:01:06;;;;;;;25.68;15.15;;;;;;;2.49;70.32;96547.98;1789164;80;21148;-80
2021/03/14 00:03:36;;;;;;;31.75;15.13;;;;;;;2.53;70.18;96540.36;1788703;80;21250;-78
2021/03/14 00:06:05;;;;;;;25.27;15.30;;;;;;;2.53;70.14;96546.87;1788782;80;21277;-81
2021/03/14 00:08:34;;;;;;;30.08;15.03;;;;;;;2.54;70.15;96537.31;1788706;80;21144;-78
2021/03/14 00:11:05;;;;;;;24.63;14.95;;;;;;;2.49;70.10;96544.08;1789194;80;21152;-77
2021/03/14 00:13:37;;;;;;;25.40;14.07;;;;;;;2.46;70.23;96539.04;1787238;80;21234;-79
2021/03/14 00:16:08;;;;;;;25.85;14.63;;;;;;;2.36;69.71;96541.34;1780442;81;21123;-79
2021/03/14 00:18:39;;;;;;;25.35;14.33;;;;;;;2.30;69.83;96536.02;1787805;80;21135;-77
2021/03/14 00:21:08;;;;;;;29.07;15.63;;;;;;;2.25;70.02;96539.79;1789235;80;21290;-78
2021/03/14 00:23:37;;;;;;;25.15;14.98;;;;;;;2.21;69.87;96540.42;1790253;80;21258;-77
2021/03/14 00:26:05;;;;;;;23.67;12.35;;;;;;;2.18;69.89;96539.28;1790486;80;21143;-79
2021/03/14 00:28:35;;;;;;;29.75;13.25;;;;;;;2.13;69.88;96538.72;1790415;80;21644;-78
2021/03/14 00:31:02;;;;;;;21.07;12.30;;;;;;;2.10;69.90;96530.59;1790590;80;21266;-80
2021/03/14 00:33:32;;;;;;;22.25;14.47;;;;;;;2.03;69.79;96532.72;1790457;80;21708;-80
2021/03/14 00:36:01;;;;;;;22.70;12.68;;;;;;;1.98;70.81;96533.89;1762800;80;21250;-79
2021/03/14 00:38:28;;;;;;;20.68;12.30;;;;;;;1.94;70.64;96526.73;1790287;79;21295;-77
2021/03/14 00:40:57;;;;;;;21.27;12.33;;;;;;;1.95;70.49;96527.55;1789750;80;21293;-80
2021/03/14 00:43:24;;;;;;;20.68;12.00;;;;;;;1.97;70.39;96521.81;1789532;80;21282;-79
2021/03/14 00:45:52;;;;;;;22.48;12.75;;;;;;;1.97;70.36;96513.54;1788494;80;21270;-79
2021/03/14 00:48:23;;;;;;;18.73;11.28;;;;;;;2.01;70.50;96512.91;1785529;80;21262;-80
2021/03/14 00:50:53;;;;;;;24.82;13.48;;;;;;;1.98;70.54;96510.50;1788432;80;21124;-79
2021/03/14 00:53:23;;;;;;;25.15;15.25;;;;;;;1.96;70.47;96514.94;1779329;80;21310;-79
2021/03/14 00:55:51;;;;;;;24.77;14.38;;;;;;;1.95;70.59;96511.48;1777680;81;21582;-79
2021/03/14 00:58:19;;;;;;;26.62;14.03;;;;;;;1.97;70.74;96508.81;1777805;80;21147;-78
2021/03/14 01:00:48;;;;;;;25.45;13.93;;;;;;;2.01;70.97;96505.11;1777947;80;21586;-79
2021/03/14 01:03:15;;;;;;;20.30;11.95;;;;;;;2.07;70.69;96503.48;1778432;81;21126;-77
2021/03/14 01:05:44;;;;;;;23.40;12.70;;;;;;;2.11;70.88;96498.48;1778780;80;21178;-80
2021/03/14 01:08:17;;;;;;;23.47;13.88;;;;;;;2.15;70.73;96496.09;1778512;80;21120;-82
2021/03/14 01:10:46;;;;;;;22.20;13.98;;;;;;;2.19;70.70;96488.48;1778820;80;21136;-80
2021/03/14 01:13:16;;;;;;;25.05;12.65;;;;;;;2.21;70.48;96482.36;1782443;80;21526;-79
2021/03/14 01:15:44;;;;;;;27.25;14.83;;;;;;;2.17;70.16;96470.00;1792523;80;21687;-79
2021/03/14 01:18:12;;;;;;;33.80;18.65;;;;;;;2.16;70.04;96472.22;1792878;80;21269;-78
2021/03/14 01:20:40;;;;;;;37.17;19.80;;;;;;;2.12;69.66;96462.45;1793025;80;21544;-78
2021/03/14 01:23:08;;;;;;;31.77;17.23;;;;;;;2.05;69.31;96466.33;1792801;80;21241;-77
2021/03/14 01:25:36;;;;;;;36.75;16.70;;;;;;;1.98;69.21;96450.70;1792020;80;21235;-79
2021/03/14 01:28:04;;;;;;;30.60;15.65;;;;;;;1.85;69.01;96455.28;1791357;80;21239;-78
2021/03/14 01:30:31;;;;;;;27.90;16.67;;;;;;;1.79;69.11;96453.03;1791810;80;21250;-77
2021/03/14 01:32:59;;;;;;;27.73;16.05;;;;;;;1.77;69.14;96451.42;1790916;80;21124;-77
2021/03/14 01:35:27;;;;;;;28.00;13.15;;;;;;;1.75;69.33;96442.89;1791555;80;21135;-78
2021/03/14 01:37:55;;;;;;;30.12;15.15;;;;;;;1.73;69.27;96439.05;1791195;79;21653;-78
2021/03/14 01:40:23;;;;;;;23.67;12.98;;;;;;;1.74;69.34;96442.03;1791396;80;21285;-79
2021/03/14 01:42:51;;;;;;;26.60;12.98;;;;;;;1.75;69.37;96436.39;1781457;80;21136;-79
2021/03/14 01:45:20;;;;;;;24.47;11.63;;;;;;;1.73;69.39;96429.97;1778312;80;21124;-80
2021/03/14 01:47:51;;;;;;;20.57;12.28;;;;;;;1.73;69.46;96439.53;1778286;80;21492;-78
2021/03/14 01:50:25;;;;;;;20.55;10.85;;;;;;;1.72;69.76;96430.88;1778356;81;21124;-79
2021/03/14 01:52:55;;;;;;;16.87;8.90;;;;;;;1.73;69.61;96432.56;1777700;81;21143;-79
2021/03/14 01:55:25;;;;;;;27.37;13.43;;;;;;;1.72;69.76;96432.18;1780431;80;21163;-80
2021/03/14 01:57:55;;;;;;;24.98;13.00;;;;;;;1.73;69.67;96422.17;1788669;80;21135;-80
2021/03/14 02:00:26;;;;;;;23.92;13.25;;;;;;;1.75;69.57;96418.20;1788941;80;21250;-79
2021/03/14 02:02:55;;;;;;;22.87;11.60;;;;;;;1.71;69.36;96417.55;1789545;80;21263;-79
2021/03/14 02:05:23;;;;;;;22.35;12.20;;;;;;;1.67;69.72;96421.22;1789617;80;21151;-79
2021/03/14 02:07:54;;;;;;;23.32;11.73;;;;;;;1.66;69.46;96420.84;1762248;80;21118;-79
2021/03/14 02:10:28;;;;;;;22.27;12.15;;;;;;;1.65;69.51;96412.66;1789064;80;21120;-79
2021/03/14 02:13:14;;;;;;;20.35;11.03;;;;;;;1.67;69.57;96405.63;1789068;80;21230;-81
2021/03/14 02:15:52;;;;;;;24.55;10.60;;;;;;;1.68;69.53;96396.91;1790513;80;21274;-78
2021/03/14 02:18:22;;;;;;;20.25;10.40;;;;;;;1.67;70.28;96401.73;1789218;80;21140;-81
2021/03/14 02:20:50;;;;;;;21.52;11.80;;;;;;;1.64;69.57;96399.30;1790608;80;21151;-80
2021/03/14 02:23:52;;;;;;;19.55;11.18;;;;;;;1.68;69.71;96397.73;1781572;80;21123;-79
2021/03/14 02:26:34;;;;;;;25.72;11.48;;;;;;;1.69;69.95;96407.69;1780496;80;21132;-80
2021/03/14 02:29:04;;;;;;;21.97;12.18;;;;;;;1.70;69.89;96399.80;1779869;80;21274;-79
2021/03/14 02:31:31;;;;;;;26.35;14.18;;;;;;;1.81;69.99;96393.98;1781003;80;21128;-78
2021/03/14 02:34:10;;;;;;;22.17;12.70;;;;;;;1.93;69.87;96392.92;1789656;80;21111;-82
2021/03/14 02:36:43;;;;;;;19.40;12.63;;;;;;;1.93;69.58;96386.42;1764169;80;21152;-79
2021/03/14 02:39:15;;;;;;;19.80;11.12;;;;;;;2.00;69.62;96392.95;1788291;79;21154;-79
2021/03/14 02:41:48;;;;;;;21.82;12.93;;;;;;;1.97;69.38;96377.06;1788190;80;21271;-80
2021/03/14 02:44:17;;;;;;;21.07;11.33;;;;;;;1.97;69.30;96386.64;1788150;80;21259;-78
2021/03/14 02:46:46;;;;;;;23.30;12.33;;;;;;;1.99;69.51;96393.42;1782935;80;21171;-78
2021/03/14 02:49:18;;;;;;;18.85;9.85;;;;;;;2.03;69.53;96397.53;1779224;81;21546;-78
2021/03/14 02:51:47;;;;;;;20.25;11.22;;;;;;;2.01;69.70;96407.17;1755551;80;21152;-79
2021/03/14 02:54:20;;;;;;;20.97;12.40;;;;;;;2.05;69.71;96395.28;1783837;80;21271;-78
2021/03/14 02:56:52;;;;;;;22.95;12.40;;;;;;;2.08;69.53;96392.07;1753894;81;21140;-79
2021/03/14 02:59:22;;;;;;;20.27;10.70;;;;;;;2.14;69.45;96383.91;1787350;80;21254;-79
2021/03/14 03:01:52;;;;;;;22.75;13.30;;;;;;;2.14;69.19;96378.70;1781792;80;21108;-78
2021/03/14 03:04:23;;;;;;;25.52;13.85;;;;;;;2.19;69.29;96372.77;1789908;80;21262;-78
2021/03/14 03:06:56;;;;;;;22.30;12.18;;;;;;;2.18;69.46;96373.69;1791288;80;21679;-78
2021/03/14 03:09:26;;;;;;;23.42;12.07;;;;;;;2.21;69.54;96364.04;1790766;80;21151;-81
2021/03/14 03:11:57;;;;;;;23.85;12.63;;;;;;;2.23;71.05;96375.20;1790899;80;21283;-79
2021/03/14 03:14:30;;;;;;;24.05;12.63;;;;;;;2.25;69.78;96378.55;1791175;80;21148;-79
2021/03/14 03:16:59;;;;;;;24.75;13.38;;;;;;;2.30;69.40;96373.91;1790919;80;21703;-78
2021/03/14 03:19:28;;;;;;;25.25;14.33;;;;;;;2.26;69.15;96371.95;1790948;80;21342;-79
2021/03/14 03:21:56;;;;;;;24.75;15.23;;;;;;;2.31;69.23;96382.08;1790738;80;21127;-78
2021/03/14 03:24:24;;;;;;;26.12;14.90;;;;;;;2.39;69.25;96384.25;1790336;80;21127;-78
2021/03/14 03:26:52;;;;;;;23.70;13.93;;;;;;;2.47;69.28;96386.75;1777027;80;21119;-77
2021/03/14 03:29:20;;;;;;;17.70;11.15;;;;;;;2.56;69.15;96379.33;1782678;80;21139;-78
2021/03/14 03:31:48;;;;;;;23.25;13.35;;;;;;;2.54;68.81;96369.02;1790854;80;21312;-79
2021/03/14 03:34:16;;;;;;;22.60;12.00;;;;;;;2.48;69.08;96358.98;1790798;80;21297;-78
2021/03/14 03:36:44;;;;;;;20.17;11.48;;;;;;;2.43;68.90;96363.16;1790555;80;21251;-78
2021/03/14 03:39:14;;;;;;;21.52;11.90;;;;;;;2.38;69.16;96363.88;1790856;79;21270;-80
2021/03/14 03:41:52;;;;;;;24.47;14.25;;;;;;;2.41;69.14;96362.41;1789330;80;21127;-79
2021/03/14 03:44:24;;;;;;;24.20;14.93;;;;;;;2.37;69.66;96367.88;1789018;80;21231;-81
2021/03/14 03:46:57;;;;;;;31.93;14.63;;;;;;;2.37;69.38;96370.00;1792400;80;21297;-78
2021/03/14 03:49:31;;;;;;;29.95;15.98;;;;;;;2.32;68.81;96365.08;1791868;80;21136;-80
2021/03/14 03:52:00;;;;;;;30.10;16.95;;;;;;;2.22;68.66;96369.17;1791561;80;21270;-79
2021/03/14 03:54:31;;;;;;;27.67;15.55;;;;;;;2.18;68.69;96367.66;1790461;80;21180;-78
2021/03/14 03:57:00;;;;;;;27.42;14.65;;;;;;;2.15;68.68;96364.78;1788331;80;21270;-79
2021/03/14 03:59:29;;;;;;;29.57;16.12;;;;;;;2.14;68.56;96368.75;1788601;80;21116;-79
2021/03/14 04:02:00;;;;;;;26.45;15.83;;;;;;;2.14;68.47;96366.16;1752503;81;21192;-80
2021/03/14 04:04:29;;;;;;;27.25;14.93;;;;;;;2.12;68.46;96354.55;1771305;80;21296;-79
2021/03/14 04:06:57;;;;;;;31.27;15.83;;;;;;;2.08;68.42;96348.32;1763062;81;21152;-79
2021/03/14 04:09:25;;;;;;;25.57;14.70;;;;;;;2.01;68.51;96343.93;1763038;81;21192;-78
2021/03/14 04:11:55;;;;;;;28.67;16.35;;;;;;;2.02;68.60;96353.41;1782873;80;21290;-79
2021/03/14 04:14:23;;;;;;;28.98;14.87;;;;;;;2.06;68.64;96369.22;1788651;80;21242;-81
2021/03/14 04:16:54;;;;;;;28.80;15.43;;;;;;;2.05;68.51;96345.44;1786151;80;21290;-78
2021/03/14 04:19:26;;;;;;;28.20;14.80;;;;;;;2.02;68.50;96365.95;1774700;80;21289;-78
2021/03/14 04:21:56;;;;;;;26.05;15.58;;;;;;;1.99;68.52;96345.81;1789638;80;21235;-79
2021/03/14 04:24:25;;;;;;;31.97;16.30;;;;;;;1.95;68.53;96352.91;1782648;80;21111;-78
2021/03/14 04:26:54;;;;;;;27.60;16.75;;;;;;;1.93;68.50;96359.14;1780688;80;21132;-80
2021/03/14 04:29:25;;;;;;;28.17;16.27;;;;;;;1.84;68.50;96369.13;1784756;80;21136;-78
2021/03/14 04:31:54;;;;;;;22.87;13.88;;;;;;;1.81;68.59;96360.68;1789203;80;21286;-79
2021/03/14 04:34:24;;;;;;;27.73;12.55;;;;;;;1.77;68.26;96352.67;1772262;80;21124;-79
2021/03/14 04:36:53;;;;;;;23.42;12.82;;;;;;;1.61;68.41;96355.32;1772132;81;21258;-79
2021/03/14 04:39:22;;;;;;;24.63;14.20;;;;;;;1.60;68.66;96357.06;1772034;80;21143;-79
2021/03/14 04:41:53;;;;;;;26.50;15.38;;;;;;;1.51;68.70;96349.34;1746273;82;21257;-78
2021/03/14 04:44:22;;;;;;;27.32;13.60;;;;;;;1.44;68.73;96358.84;1741399;82;21135;-80
2021/03/14 04:46:50;;;;;;;24.47;15.90;;;;;;;1.42;68.78;96352.45;1751594;80;21239;-78
2021/03/14 04:49:18;;;;;;;30.85;15.18;;;;;;;1.41;68.95;96344.28;1743868;82;21144;-79
2021/03/14 04:51:46;;;;;;;28.00;13.38;;;;;;;1.44;68.95;96340.67;1750449;81;21099;-78
2021/03/14 04:54:15;;;;;;;23.70;13.55;;;;;;;1.42;69.35;96356.34;1757559;82;21182;-79
2021/03/14 04:56:44;;;;;;;24.52;14.50;;;;;;;1.47;70.28;96347.00;1707537;84;21163;-79
2021/03/14 04:59:15;;;;;;;20.95;11.53;;;;;;;1.52;69.48;96355.36;1727760;83;21288;-81
2021/03/14 05:01:46;;;;;;;22.52;13.70;;;;;;;1.55;69.51;96351.30;1703035;84;21258;-80
2021/03/14 05:04:17;;;;;;;23.05;12.88;;;;;;;1.58;69.91;96345.09;1714946;83;21156;-78
2021/03/14 05:06:47;;;;;;;24.60;13.75;;;;;;;1.62;71.31;96333.14;1713548;84;21172;-80
2021/03/14 05:09:16;;;;;;;22.50;12.98;;;;;;;1.70;71.09;96328.81;1720786;83;21143;-78
2021/03/14 05:11:48;;;;;;;23.18;13.05;;;;;;;1.79;70.74;96316.59;1737812;83;21145;-79
2021/03/14 05:14:18;;;;;;;26.70;14.45;;;;;;;1.87;70.41;96307.04;1719938;83;21171;-80
2021/03/14 05:16:46;;;;;;;20.97;13.05;;;;;;;1.91;70.58;96316.80;1728540;83;21165;-78
2021/03/14 05:19:15;;;;;;;25.82;13.80;;;;;;;2.02;70.42;96315.71;1732462;83;21147;-78
2021/03/14 05:21:45;;;;;;;23.52;12.47;;;;;;;2.00;70.18;96315.81;1717298;83;21265;-79
2021/03/14 05:24:14;;;;;;;26.48;15.15;;;;;;;2.05;70.09;96309.48;1687594;85;21164;-79
2021/03/14 05:26:44;;;;;;;25.68;14.10;;;;;;;2.12;70.17;96310.83;1677116;85;21166;-78
2021/03/14 05:29:13;;;;;;;29.05;14.55;;;;;;;2.24;70.06;96317.06;1683945;84;21225;-78
2021/03/14 05:31:41;;;;;;;24.67;15.15;;;;;;;2.40;69.95;96320.41;1704740;84;21582;-79
2021/03/14 05:34:15;;;;;;;27.70;15.58;;;;;;;2.41;69.36;96316.06;1710277;83;21179;-80
2021/03/14 05:36:45;;;;;;;27.05;14.80;;;;;;;2.48;69.47;96316.88;1735296;83;21244;-79
2021/03/14 05:39:15;;;;;;;25.02;15.72;;;;;;;2.58;69.32;96318.48;1736176;83;21257;-78
2021/03/14 05:41:44;;;;;;;26.90;16.10;;;;;;;2.69;69.03;96314.39;1715407;83;21296;-77
2021/03/14 05:44:13;;;;;;;29.60;16.40;;;;;;;2.71;68.72;96315.11;1705447;84;21580;-79
2021/03/14 05:46:41;;;;;;;29.63;15.25;;;;;;;2.75;68.72;96313.53;1705577;84;21150;-80
2021/03/14 05:49:10;;;;;;;31.33;16.25;;;;;;;2.87;68.64;96303.30;1707638;83;21284;-76
2021/03/14 05:51:48;;;;;;;28.80;15.88;;;;;;;2.92;68.22;96299.97;1732707;83;21276;-78
2021/03/14 05:54:18;;;;;;;26.97;15.10;;;;;;;2.99;68.36;96301.69;1720670;82;21603;-77
2021/03/14 05:56:49;;;;;;;29.40;15.58;;;;;;;3.12;68.33;96298.22;1738343;83;21145;-79
2021/03/14 05:59:18;;;;;;;26.55;16.23;;;;;;;3.24;68.19;96295.33;1751386;82;21161;-78
2021/03/14 06:01:51;;;;;;;30.32;17.85;;;;;;;3.37;68.08;96293.23;1737246;83;21143;-79
2021/03/14 06:04:20;;;;;;;27.77;17.00;;;;;;;3.40;67.90;96274.32;1727163;83;21707;-77
2021/03/14 06:06:48;;;;;;;35.65;18.80;;;;;;;3.43;67.60;96275.92;1693970;83;21427;-79
2021/03/14 06:09:17;;;;;;;20.05;11.53;;;;;;;3.33;67.57;96269.14;1673868;85;21278;-79
2021/03/14 06:11:46;;;;;;;19.65;10.58;;;;;;;3.25;67.97;96274.02;1728396;83;21680;-79
2021/03/14 06:14:13;;;;;;;15.78;9.23;;;;;;;3.16;68.29;96279.81;1736435;83;21294;-78
2021/03/14 06:16:43;;;;;;;26.60;15.10;;;;;;;3.12;69.04;96296.92;1736914;83;21167;-78
2021/03/14 06:19:12;;;;;;;24.32;15.00;;;;;;;3.19;68.83;96296.55;1737892;82;21281;-81
2021/03/14 06:22:19;;;;;;;;;;;;;;;3.41;68.94;96296.84;1742413;82;21340;-81
2021/03/14 06:24:50;;;;;;;20.60;14.15;;;;;;;3.57;68.62;96287.57;1738899;82;20187;-79
2021/03/14 06:27:54;;;;;;;22.60;14.07;;;;;;;3.87;68.95;96285.64;1709828;83;21321;-78
2021/03/14 06:30:29;;;;;;;24.82;15.32;;;;;;;4.29;68.86;96281.11;1726826;83;21282;-79
2021/03/14 06:33:13;;;;;;;23.75;14.50;;;;;;;4.77;67.79;96282.22;1722787;83;21171;-79
2021/03/14 06:35:56;;;;;;;21.60;10.95;;;;;;;5.08;66.73;96282.66;1726045;83;21300;-77
2021/03/14 06:38:34;;;;;;;24.57;15.05;;;;;;;5.22;66.63;96286.44;1736813;82;21299;-80
2021/03/14 06:41:16;;;;;;;21.93;14.40;;;;;;;5.27;66.07;96293.46;1735561;83;21286;-80
2021/03/14 06:43:52;;;;;;;19.70;13.03;;;;;;;5.38;66.22;96282.22;1736053;82;21126;-79
2021/03/14 06:46:27;;;;;;;22.22;13.68;;;;;;;5.50;64.14;96291.44;1739039;82;21268;-79
2021/03/14 06:49:10;;;;;;;22.52;14.70;;;;;;;5.34;64.74;96291.70;1746677;82;21240;-80
2021/03/14 06:51:42;;;;;;;26.25;15.13;;;;;;;5.26;65.01;96294.40;1723949;83;21176;-79
2021/03/14 06:54:31;;;;;;;25.70;15.45;;;;;;;5.40;65.40;96300.42;1731692;82;21548;-79
2021/03/14 06:57:16;;;;;;;25.60;14.95;;;;;;;5.67;64.86;96305.41;1715627;82;21165;-81
2021/03/14 06:59:56;;;;;;;17.65;10.43;;;;;;;5.97;64.63;96299.36;1716707;83;21169;-79
2021/03/14 07:02:30;;;;;;;26.25;16.07;;;;;;;6.29;64.23;96293.51;1697473;85;21161;-79
2021/03/14 07:05:04;;;;;;;25.15;14.70;;;;;;;6.61;63.44;96291.05;1695018;85;21221;-80
2021/03/14 07:07:42;;;;;;;22.95;14.80;;;;;;;6.83;62.69;96286.77;1720863;82;21727;-80
2021/03/14 07:10:17;;;;;;;24.47;14.93;;;;;;;6.94;62.21;96281.98;1723949;82;21132;-78
2021/03/14 07:12:47;;;;;;;18.67;11.68;;;;;;;7.08;62.18;96278.28;1690309;84;21170;-80
2021/03/14 07:15:23;;;;;;;27.90;15.98;;;;;;;7.47;62.16;96269.50;1690607;85;21149;-80
2021/03/14 07:17:53;;;;;;;21.02;13.48;;;;;;;7.43;61.22;96267.61;1691061;85;21110;-79
2021/03/14 07:20:29;;;;;;;19.45;13.60;;;;;;;7.36;60.81;96267.75;1697837;83;21194;-79
2021/03/14 07:23:06;;;;;;;27.45;16.75;;;;;;;7.35;59.78;96268.70;1730808;83;21140;-79
2021/03/14 07:25:41;;;;;;;21.68;15.65;;;;;;;7.18;60.40;96281.38;1708356;84;21152;-79
2021/03/14 07:28:11;;;;;;;28.50;15.35;;;;;;;7.40;60.64;96278.33;1733028;83;21163;-80
2021/03/14 07:30:43;;;;;;;26.60;15.28;;;;;;;7.72;60.25;96277.52;1750472;82;21280;-79
2021/03/14 07:33:12;;;;;;;25.92;15.30;;;;;;;8.56;59.12;96274.57;1736925;83;21134;-80
2021/03/14 07:35:47;;;;;;;25.97;15.53;;;;;;;8.56;59.12;96274.57;1720671;82;21264;-80
2021/03/14 07:38:15;;;;;;;26.23;14.55;;;;;;;8.95;56.42;96271.27;1706059;83;21625;-81
2021/03/14 07:40:43;;;;;;;22.00;14.00;;;;;;;9.11;58.81;96265.50;1722775;83;21151;-81
2021/03/14 07:43:12;;;;;;;19.27;12.95;;;;;;;9.13;57.77;96272.78;1708016;82;21294;-80
2021/03/14 07:45:41;;;;;;;22.30;14.63;;;;;;;9.17;58.74;96279.41;1737919;83;21182;-79
2021/03/14 07:48:10;;;;;;;19.90;14.28;;;;;;;9.28;58.19;96278.00;1702739;83;21578;-79
2021/03/14 07:50:44;;;;;;;21.75;13.90;;;;;;;9.33;57.52;96273.15;1736421;82;21290;-79
2021/03/14 07:53:16;;;;;;;20.52;14.33;;;;;;;9.25;57.29;96280.89;1726450;83;21271;-81
2021/03/14 07:55:50;;;;;;;18.95;13.62;;;;;;;9.15;57.34;96282.19;1738751;82;21294;-81
2021/03/14 07:58:23;;;;;;;19.50;14.60;;;;;;;9.09;57.34;96290.63;1733500;83;21277;-82
2021/03/14 08:00:51;;;;;;;23.22;15.18;;;;;;;8.99;57.06;96284.50;1733635;83;21270;-80
2021/03/14 08:03:36;;;;;;;23.98;14.73;;;;;;;8.88;56.91;96281.00;1789066;80;21242;-81
2021/03/14 08:06:04;;;;;;;20.52;13.88;;;;;;;8.77;57.10;96279.77;1789424;80;21135;-81
2021/03/14 08:08:42;;;;;;;24.75;16.17;;;;;;;8.67;57.54;96273.17;1754857;81;21143;-80
2021/03/14 08:11:24;;;;;;;;;;;;;;;8.49;57.33;96269.50;1773386;81;21101;-81
2021/03/14 08:13:53;;;;;;;22.73;14.53;;;;;;;8.36;57.04;96269.64;1770175;81;20226;-81
2021/03/14 08:16:26;;;;;;;22.58;14.95;;;;;;;8.36;58.79;96278.38;1769588;80;21163;-77
2021/03/14 08:19:01;;;;;;;27.65;16.40;;;;;;;8.40;58.17;96275.00;1778164;80;21293;-78
2021/03/14 08:21:34;;;;;;;25.75;13.40;;;;;;;8.28;58.01;96267.19;1784262;80;21585;-79
2021/03/14 08:24:05;;;;;;;23.42;14.05;;;;;;;8.24;58.30;96279.39;1779221;80;21314;-77
2021/03/14 08:26:36;;;;;;;18.70;12.50;;;;;;;8.17;58.56;96282.19;1789148;80;21279;-77
2021/03/14 08:29:14;;;;;;;21.15;15.15;;;;;;;8.03;58.15;96284.65;1786510;80;21805;-79
2021/03/14 08:32:00;;;;;;;30.45;15.75;;;;;;;7.89;58.59;96286.61;1825324;77;24807;-82
2021/03/14 08:34:42;;;;;;;24.37;15.32;;;;;;;7.72;60.71;96285.39;1752721;81;21163;-79
2021/03/14 08:37:27;;;;;;;23.12;15.80;;;;;;;7.70;59.30;96275.98;1726792;82;21217;-79
2021/03/14 08:40:06;;;;;;;25.72;14.00;;;;;;;7.78;59.50;96273.07;1726991;83;21170;-79
2021/03/14 08:42:57;;;;;;;27.55;15.98;;;;;;;8.22;59.60;96265.09;1779507;79;24759;-79
2021/03/14 08:45:27;;;;;;;25.32;15.85;;;;;;;8.46;59.14;96257.41;1753063;82;21207;-79
2021/03/14 08:48:08;;;;;;;21.55;14.87;;;;;;;8.70;57.68;96251.87;1745568;82;21152;-81
2021/03/14 08:50:38;;;;;;;25.60;15.72;;;;;;;9.12;58.42;96248.77;1637533;86;21202;-79
2021/03/14 08:53:11;;;;;;;20.48;10.48;;;;;;;9.39;58.21;96245.48;1662660;86;21186;-78
2021/03/14 08:55:49;;;;;;;18.98;13.90;;;;;;;9.63;57.62;96237.19;1641162;86;21214;-79
2021/03/14 08:58:18;;;;;;;24.98;13.85;;;;;;;9.77;57.51;96239.06;1663561;85;21644;-80
2021/03/14 09:01:04;;;;;;;18.50;11.28;;;;;;;9.89;57.08;96241.06;1671128;85;21198;-80
2021/03/14 09:03:42;;;;;;;15.85;11.38;;;;;;;9.91;54.52;96233.86;1650758;85;21191;-79
2021/03/14 09:06:24;;;;;;;10.98;7.53;;;;;;;10.09;56.42;96226.06;1684971;85;21148;-79
2021/03/14 09:09:02;;;;;;;23.57;11.85;;;;;;;10.28;55.92;96226.52;1684951;85;21235;-78
2021/03/14 09:11:51;;;;;;;14.50;10.72;;;;;;;10.24;55.59;96225.98;1685618;84;21180;-80
2021/03/14 09:14:32;;;;;;;11.20;6.83;;;;;;;10.25;54.73;96216.26;1712370;83;21607;-79
2021/03/14 09:17:05;;;;;;;11.43;7.47;;;;;;;10.14;54.37;96228.61;1712848;84;21148;-79
2021/03/14 09:19:56;;;;;;;18.10;10.05;;;;;;;9.99;54.81;96232.17;1706986;84;21166;-82
2021/03/14 09:22:34;;;;;;;15.38;8.45;;;;;;;9.99;55.55;96229.54;1701826;84;21216;-80
2021/03/14 09:25:08;;;;;;;14.33;8.70;;;;;;;10.07;55.40;96223.58;1720217;83;21624;-81
2021/03/14 09:27:39;;;;;;;16.70;8.58;;;;;;;10.16;55.59;96211.38;1692029;84;21174;-80
2021/03/14 09:30:15;;;;;;;15.65;11.33;;;;;;;10.22;55.35;96223.97;1699929;83;21215;-79
2021/03/14 09:32:52;;;;;;;14.80;11.73;;;;;;;10.31;54.49;96219.63;1685927;85;21624;-79
2021/03/14 09:35:32;;;;;;;15.15;10.72;;;;;;;10.43;55.47;96221.66;1712279;84;21183;-80
2021/03/14 09:38:04;;;;;;;20.65;12.20;;;;;;;10.46;54.94;96216.08;1691276;84;21199;-79
2021/03/14 09:40:38;;;;;;;21.62;11.80;;;;;;;10.38;55.42;96216.82;1657917;85;21206;-82
2021/03/14 09:43:22;;;;;;;10.03;7.30;;;;;;;10.30;55.20;96221.45;1671960;86;21195;-81
2021/03/14 09:46:20;;;;;;;19.05;12.43;;;;;;;10.25;55.48;96227.64;1833215;77;24825;-74
2021/03/14 09:49:11;;;;;;;19.87;11.75;;;;;;;10.07;55.61;96237.24;1826790;78;21103;-76
2021/03/14 09:51:40;;;;;;;14.30;9.43;;;;;;;9.96;56.17;96229.84;1803061;78;21703;-77
2021/03/14 09:54:12;;;;;;;16.23;9.68;;;;;;;9.85;56.10;96227.35;1831308;78;21226;-78
2021/03/14 09:56:41;;;;;;;17.00;11.65;;;;;;;9.65;56.50;96224.73;1831034;78;21143;-78
2021/03/14 09:59:24;;;;;;;16.42;11.00;;;;;;;9.48;57.43;96228.87;1794897;78;21787;-76
2021/03/14 10:01:57;;;;;;;16.60;11.50;;;;;;;9.40;57.59;96237.94;1807036;78;21278;-79
2021/03/14 10:04:26;;;;;;;19.57;10.60;;;;;;;9.31;58.48;96238.28;1822436;78;21159;-77
2021/03/14 10:06:56;;;;;;;20.12;11.80;;;;;;;9.26;58.19;96235.72;1813204;78;21127;-78
2021/03/14 10:09:26;;;;;;;15.45;11.73;;;;;;;9.14;59.16;96240.27;1803579;79;21122;-80
2021/03/14 10:11:56;;;;;;;11.05;7.45;;;;;;;9.12;59.05;96240.88;1797034;79;21485;-79
2021/03/14 10:14:25;;;;;;;11.68;7.92;;;;;;;9.11;58.91;96240.03;1788242;78;21117;-76
2021/03/14 10:16:54;;;;;;;18.73;12.20;;;;;;;9.07;59.46;96246.55;1818579;78;21150;-78
2021/03/14 10:19:23;;;;;;;19.00;13.65;;;;;;;8.90;61.20;96246.23;1784114;79;21200;-78
2021/03/14 10:21:51;;;;;;;22.62;15.83;;;;;;;8.77;61.25;96256.13;1749267;82;22029;-78
2021/03/14 10:24:45;;;;;;;16.37;8.95;;;;;;;8.70;62.10;96249.25;1735361;81;21179;-76
2021/03/14 10:27:23;;;;;;;25.50;14.55;;;;;;;8.58;63.87;96249.83;1761192;81;21152;-77
2021/03/14 10:30:00;;;;;;;21.07;14.07;;;;;;;8.34;64.67;96250.59;1771569;81;21145;-80
2021/03/14 10:32:44;;;;;;;21.62;14.28;;;;;;;8.21;65.41;96250.80;1750131;81;21175;-78
2021/03/14 10:35:15;;;;;;;14.93;10.23;;;;;;;8.12;65.55;96244.02;1744027;81;21159;-76
2021/03/14 10:37:43;;;;;;;16.40;9.63;;;;;;;7.92;67.86;96251.44;1769396;79;21162;-78
2021/03/14 10:40:20;;;;;;;17.05;9.28;;;;;;;7.92;67.86;96251.44;1743496;82;21158;-76
2021/03/14 10:42:52;;;;;;;21.70;14.47;;;;;;;7.75;68.97;96242.33;1758885;79;22348;-80
2021/03/14 10:45:30;;;;;;;19.45;12.85;;;;;;;7.68;68.36;96234.61;1794039;79;21306;-77
2021/03/14 10:48:04;;;;;;;18.80;11.40;;;;;;;7.79;69.23;96199.97;1797495;80;21273;-78
2021/03/14 10:50:46;;;;;;;26.42;15.15;;;;;;;8.00;68.80;96221.44;1851430;77;24708;-79
2021/03/14 10:53:21;;;;;;;26.60;15.25;;;;;;;8.29;69.36;96229.47;1827495;78;21740;-78
2021/03/14 10:56:08;;;;;;;21.95;14.70;;;;;;;8.29;69.36;96229.47;1837347;77;21132;-77
2021/03/14 10:58:42;;;;;;;24.77;15.32;;;;;;;8.29;69.13;96197.16;1790919;80;21290;-80
2021/03/14 11:01:16;;;;;;;24.75;16.82;;;;;;;8.60;68.99;96228.67;1758999;80;21164;-79
2021/03/14 11:03:43;;;;;;;35.03;15.65;;;;;;;8.73;69.89;96223.19;1763783;79;21293;-77
2021/03/14 11:06:22;;;;;;;24.07;15.98;;;;;;;8.83;68.58;96224.55;1769345;80;21310;-80
2021/03/14 11:09:04;;;;;;;29.92;19.70;;;;;;;8.94;68.34;96220.97;1741132;80;21168;-78
2021/03/14 11:11:48;;;;;;;28.85;19.00;;;;;;;8.99;67.99;96227.48;1758388;80;21188;-77
2021/03/14 11:14:32;;;;;;;33.53;20.75;;;;;;;9.08;67.89;96223.23;1766956;81;21518;-77
2021/03/14 11:17:18;;;;;;;33.85;21.07;;;;;;;9.15;68.19;96218.24;1739079;79;22080;-78
2021/03/14 11:20:00;;;;;;;31.00;17.65;;;;;;;9.31;68.43;96217.25;1822030;77;24253;-77
2021/03/14 11:22:30;;;;;;;36.28;21.85;;;;;;;9.40;67.43;96216.08;1745960;81;21588;-79
2021/03/14 11:24:57;;;;;;;38.90;24.45;;;;;;;9.42;67.48;96214.14;1736097;81;21179;-78
2021/03/14 11:27:27;;;;;;;33.60;18.77;;;;;;;9.43;67.30;96208.73;1746115;81;21355;-78
2021/03/14 11:29:57;;;;;;;32.40;18.62;;;;;;;9.38;67.58;96212.25;1769688;81;21767;-78
2021/03/14 11:32:26;;;;;;;20.85;14.00;;;;;;;9.30;67.95;96211.64;1769849;81;21182;-77
2021/03/14 11:35:02;;;;;;;25.50;14.83;;;;;;;9.29;67.90;96203.40;1766094;81;21178;-79
2021/03/14 11:37:48;;;;;;;16.25;9.35;;;;;;;9.22;68.26;96203.61;1738981;81;21203;-77
2021/03/14 11:40:39;;;;;;;20.85;15.35;;;;;;;9.19;68.58;96209.95;1786979;80;24234;-78
2021/03/14 11:43:11;;;;;;;24.50;16.67;;;;;;;8.97;68.92;96211.02;1758819;81;21162;-79
2021/03/14 11:45:40;;;;;;;25.25;15.68;;;;;;;8.88;69.70;96211.36;1757822;81;21176;-79
2021/03/14 11:48:09;;;;;;;20.37;15.60;;;;;;;8.93;69.63;96205.70;1761000;81;21194;-78
2021/03/14 11:50:38;;;;;;;14.78;10.00;;;;;;;8.95;69.91;96210.80;1743562;81;21209;-79
2021/03/14 11:53:09;;;;;;;17.85;13.03;;;;;;;8.84;69.54;96211.27;1729337;83;21170;-78